Alsace Manor, Pennsylvania
Current Conditions -  °F | °C
As of 2:54 AM on Thursday 27 Nov 2014 (Local Time) from KRDG Reporting Station
Overcast Overcast  
Wind Chill: -2°   Ceiling: 5000
Heat Index:   Visibility: 10mi
Dew Point: -2°   Wind: 8mph
Humidity: 78%   Direction: 300°WNW
Pressure: 29.95"   Gusts: NA
Location:  40.4008°N, 75.8851°W
Report Text: KRDG 270754Z 30007KT 10SM OVC050 02/M02 A2995 RMK AO2 SLP151 T00171017
Loading
Personal Weather Stations






























Interactive Weather Map New forecast layout! Learn more

10-Day Weather Forecast

Advertisements
Track Severe Weather on mobile